• Join FlightAware (Why Join?)
  • Login
  • US Flag 
10:43PM EDT


 

Airport Tracker/Info


-or-


 

Live Flight TrackerFlight Track Log ✈ SWG678 ✈ 15-Feb-2014 ✈ CYWG - MUVR / VRA

Flight Track Log - Related Links

Times and Time Zones

All times are in EST time to prevent confusion due to time zone crossing. See the SWG678 flight status page for this flight to view local times or setup timezone preferences in your user account.

Time Position Orientation Groundspeed Altitude Reporting Facility
EST Latitude Longitude Course Direction KTS MPH feet Rate Location/Type
07:13PM 50.0100 -97.1580 113° Southeast 268 308 5,700  Level FlightAware ADS-B
07:13PM 50.0000 -97.1340 123° Southeast 284 327 6,300 2,700 Climbing FlightAware ADS-B
07:13PM 49.9840 -97.1170 146° Southeast 291 335 7,100 2,520 Climbing FlightAware ADS-B
07:14PM 49.9680 -97.1080 160° South 297 342 7,500 2,880 Climbing FlightAware ADS-B
07:14PM 49.9450 -97.0990 166° South 298 343 8,400 3,120 Climbing FlightAware ADS-B
07:14PM 49.9180 -97.0870 164° South 301 346 9,400 2,220 Climbing FlightAware ADS-B
07:15PM 49.8680 -97.0670 166° South 329 379 10,500 1,620 Climbing FlightAware ADS-B
07:15PM 49.8120 -97.0430 165° South 362 417 11,400 1,980 Climbing FlightAware ADS-B
07:16PM 49.7540 -97.0180 164° South 373 429 12,900 2,280 Climbing FlightAware ADS-B
07:16PM 49.7020 -96.9960 165° South 387 445 14,000 2,100 Climbing FlightAware ADS-B
07:17PM 49.6520 -96.9660 159° South 402 463 15,000 2,400 Climbing FlightAware ADS-B
07:18PM 49.5930 -96.9150 151° Southeast 405 466 16,600 2,460 Climbing FlightAware ADS-B
07:18PM 49.5350 -96.8600 148° Southeast 412 474 18,000 2,160 Climbing FlightAware ADS-B
07:19PM 49.4860 -96.8140 149° Southeast 419 482 19,000 2,040 Climbing FlightAware ADS-B
07:19PM 49.4280 -96.7580 148° Southeast 425 489 20,300 2,040 Climbing FlightAware ADS-B
07:20PM 49.3760 -96.7090 148° Southeast 433 498 21,300 1,860 Climbing FlightAware ADS-B
07:20PM 49.3250 -96.6600 148° Southeast 438 504 22,200 1,740 Climbing FlightAware ADS-B
07:21PM 49.2630 -96.6010 148° Southeast 445 512 23,300 1,740 Climbing FlightAware ADS-B
07:21PM 49.2100 -96.5510 148° Southeast 450 518 24,200 1,680 Climbing FlightAware ADS-B
07:22PM 49.1580 -96.5020 148° Southeast 453 521 25,000 1,620 Climbing FlightAware ADS-B
07:22PM 49.1040 -96.4520 149° Southeast 458 527 25,800 1,500 Climbing FlightAware ADS-B
07:23PM 49.0600 -96.4100 148° Southeast 462 532 26,400 1,320 Climbing FlightAware ADS-B
07:24PM 48.9760 -96.3320 149° Southeast 469 540 27,400 1,080 Climbing FlightAware ADS-B
07:24PM 48.9075 -96.2714 149° Southeast 465 535 28,000 1,080 Climbing Minneapolis Center
07:25PM 48.7942 -96.1661 149° Southeast 474 545 29,300 1,080 Climbing Minneapolis Center
07:26PM 48.6789 -96.0600 149° Southeast 482 555 30,300 1,080 Climbing Minneapolis Center
07:27PM 48.5617 -95.9525 149° Southeast 489 563 31,500 1,020 Climbing Minneapolis Center
07:28PM 48.4436 -95.8444 149° Southeast 494 568 32,400 780 Climbing Minneapolis Center
07:29PM 48.3250 -95.7369 149° Southeast 497 572 33,200 600 Climbing Minneapolis Center
07:30PM 48.2028 -95.6272 149° Southeast 504 580 33,700 660 Climbing Minneapolis Center
07:31PM 48.0589 -95.4983 149° Southeast 515 593 34,600 600 Climbing Minneapolis Center
07:32PM 47.9347 -95.3889 149° Southeast 519 597 35,000 120 Climbing Minneapolis Center
07:33PM 47.8128 -95.2783 149° Southeast 518 596 34,900  Descending Minneapolis Center
07:34PM 47.6886 -95.1700 150° Southeast 519 597 35,000  Climbing Minneapolis Center
07:35PM 47.5653 -95.0625 150° Southeast 518 596 34,900 -60 Descending Minneapolis Center
07:36PM 47.4436 -94.9561 149° Southeast 515 593 34,900  Level Minneapolis Center
07:37PM 47.3214 -94.8492 149° Southeast 513 590 34,900  Level Minneapolis Center
07:39PM 47.1992 -94.7450 150° Southeast 513 590 35,000  Climbing Minneapolis Center
07:40PM 47.0511 -94.6181 150° Southeast 516 594 34,900 -60 Descending Minneapolis Center
07:41PM 46.9292 -94.5131 150° Southeast 514 592 34,900  Level Minneapolis Center
07:42PM 46.8056 -94.4097 150° Southeast 515 593 35,000  Climbing Minneapolis Center
07:43PM 46.6817 -94.3047 150° Southeast 518 596 34,900 -60 Descending Minneapolis Center
07:44PM 46.5583 -94.2017 150° Southeast 516 594 34,900  Level Minneapolis Center
07:45PM 46.4358 -94.0997 150° Southeast 513 590 35,000  Climbing Minneapolis Center
07:46PM 46.3106 -94.0017 152° Southeast 514 592 34,900  Descending Minneapolis Center
07:47PM 46.1722 -93.9289 160° South 511 588 35,000  Climbing Minneapolis Center
07:48PM 46.0414 -93.8511 158° South 509 586 35,000  Level Minneapolis Center
07:53PM 45.3674 -93.3788 158° South 501 577 35,000  Level FlightAware ADS-B
07:54PM 45.2708 -93.3128 154° Southeast 500 575 35,000  Level FlightAware ADS-B
07:54PM 45.1926 -93.2595 154° Southeast 501 577 35,000  Level FlightAware ADS-B
07:55PM 45.1205 -93.2104 154° Southeast 503 579 35,000  Level FlightAware ADS-B
07:56PM 45.0262 -93.1468 155° Southeast 504 580 35,000  Level FlightAware ADS-B
07:56PM 44.9168 -93.0726 154° Southeast 504 580 35,000  Level FlightAware ADS-B
07:57PM 44.8243 -93.0102 154° Southeast 505 581 35,000  Level FlightAware ADS-B
07:58PM 44.7261 -92.9443 154° Southeast 504 580 35,000  Level FlightAware ADS-B
07:58PM 44.6578 -92.8984 154° Southeast 504 580 35,000  Level FlightAware ADS-B
07:59PM 44.5480 -92.8251 155° Southeast 503 579 35,000  Level FlightAware ADS-B
08:00PM 44.4291 -92.7461 155° Southeast 503 579 35,000  Level FlightAware ADS-B
08:01PM 44.3672 -92.7053 155° Southeast 503 579 35,000  Level Minneapolis Center
08:02PM 44.2417 -92.6231 155° Southeast 501 577 35,000  Level Minneapolis Center
08:03PM 44.1156 -92.5414 155° Southeast 500 575 35,000  Level Minneapolis Center
08:04PM 43.9906 -92.4592 155° Southeast 499 574 35,000  Level Minneapolis Center
08:05PM 43.8639 -92.3772 155° Southeast 501 577 35,000  Level Minneapolis Center
08:06PM 43.7322 -92.2894 154° Southeast 498 573 35,000  Level Minneapolis Center
08:07PM 43.6072 -92.2094 155° Southeast 499 574 35,000  Level Minneapolis Center
08:12PM 42.9065 -91.7654 155° Southeast 505 581 35,000  Level FlightAware ADS-B
08:14PM 42.7192 -91.6483 155° Southeast 502 578 35,000  Level FlightAware ADS-B
08:15PM 42.6050 -91.5774 155° Southeast 502 578 35,000  Level FlightAware ADS-B
08:16PM 42.5018 -91.5141 156° South 503 579 35,000  Level FlightAware ADS-B
08:16PM 42.4267 -91.4679 156° South 503 579 35,000  Level FlightAware ADS-B
08:17PM 42.3539 -91.4231 156° South 503 579 35,000  Level FlightAware ADS-B (KMDW)
08:17PM 42.2851 -91.3808 156° South 503 579 35,000  Level FlightAware ADS-B (KMDW)
08:18PM 42.2269 -91.3449 156° South 503 579 35,000  Level FlightAware ADS-B (KMDW)
08:18PM 42.1404 -91.2923 156° South 504 580 35,000  Level FlightAware ADS-B (KMDW)
08:19PM 42.0725 -91.2509 156° South 505 581 35,000  Level FlightAware ADS-B (KMDW)
08:19PM 42.0276 -91.2236 156° South 505 581 35,000  Level FlightAware ADS-B (KMDW)
08:24PM 41.4260 -90.8619 156° South 513 590 35,000  Level FlightAware ADS-B (KMDW)
08:25PM 41.2598 -90.7633 156° South 509 586 35,000  Level FlightAware ADS-B (KMDW)
08:26PM 41.1768 -90.7145 156° South 509 586 35,000  Level FlightAware ADS-B (KMDW)
08:27PM 41.0400 -90.6343 156° South 508 585 35,000  Level FlightAware ADS-B (KMDW)
08:28PM 40.8488 -90.5221 156° South 509 586 35,000  Level FlightAware ADS-B (KMDW)
08:29PM 40.7453 -90.4619 156° South 507 583 35,000  Level FlightAware ADS-B (KMDW)
08:32PM 40.3771 -90.2486 156° South 514 592 35,000  Level FlightAware ADS-B (KMDW)
08:38PM 39.6501 -89.8363 156° South 514 592 35,000  Level FlightAware ADS-B (KMDW)
08:38PM 39.5914 -89.8031 156° South 511 588 35,000  Level Kansas City Center
08:39PM 39.4606 -89.7297 157° South 511 588 35,000  Level Kansas City Center
08:40PM 39.3047 -89.6428 157° South 509 586 35,000  Level Kansas City Center
08:41PM 39.1731 -89.5694 157° South 510 587 35,000  Level Kansas City Center
08:42PM 39.0408 -89.4983 157° South 512 589 35,000  Level Kansas City Center
08:43PM 38.9092 -89.4250 157° South 513 590 35,000  Level Kansas City Center
08:44PM 38.7767 -89.3525 157° South 514 592 35,000  Level Kansas City Center
08:46PM 38.6442 -89.2808 157° South 515 593 35,000  Level Kansas City Center
08:47PM 38.5053 -89.2050 157° South 517 595 35,000  Level Kansas City Center
08:48PM 38.3603 -89.1417 161° South 510 587 35,000  Level Kansas City Center
08:49PM 38.2411 -89.1056 167° South 502 578 35,000  Level Kansas City Center
08:50PM 38.1036 -89.0675 168° South 503 579 35,000  Level Kansas City Center
08:51PM 37.9656 -89.0253 166° South 508 585 35,000  Level Kansas City Center
08:52PM 37.8269 -88.9853 167° South 509 586 35,000  Level Kansas City Center
08:53PM 37.6761 -88.9394 166° South 510 587 35,000  Level Kansas City Center
08:54PM 37.5353 -88.8994 167° South 515 593 35,000  Level Kansas City Center
08:55PM 37.3964 -88.8625 168° South 511 588 35,000  Level Kansas City Center
08:56PM 37.2542 -88.8197 167° South 519 597 35,000  Level Memphis Center
08:57PM 37.1114 -88.7803 168° South 522 601 35,000  Level Memphis Center
08:58PM 36.9694 -88.7403 167° South 521 600 35,000  Level Memphis Center
08:59PM 36.8272 -88.6989 167° South 521 600 35,000  Level Memphis Center
09:00PM 36.6839 -88.6592 167° South 522 601 35,000  Level Memphis Center
09:01PM 36.5414 -88.6186 167° South 521 600 35,000  Level Memphis Center
09:02PM 36.4000 -88.5803 168° South 517 595 35,000  Level Memphis Center
09:03PM 36.2594 -88.5403 167° South 515 593 35,000  Level Memphis Center
09:04PM 36.1217 -88.5025 168° South 508 585 35,000  Level Memphis Center
09:05PM 35.9844 -88.4650 168° South 504 580 35,000  Level Memphis Center
09:06PM 35.8447 -88.4258 167° South 509 586 35,000  Level Memphis Center
09:07PM 35.7061 -88.3881 168° South 508 585 35,000  Level Memphis Center
09:08PM 35.5703 -88.3322 162° South 518 596 35,000  Level Memphis Center
09:09PM 35.4392 -88.2347 149° Southeast 544 626 35,000  Level Memphis Center
09:10PM 35.2944 -88.1239 148° Southeast 545 627 35,000  Level Memphis Center
09:11PM 35.1650 -88.0239 148° Southeast 549 632 35,000  Level Memphis Center
09:12PM 35.0350 -87.9239 148° Southeast 552 635 35,000  Level Memphis Center
09:13PM 34.9058 -87.8253 148° Southeast 549 632 35,000  Level Memphis Center
09:14PM 34.7767 -87.7258 148° Southeast 549 632 35,000  Level Memphis Center
09:15PM 34.6469 -87.6281 148° Southeast 548 631 35,000  Level Memphis Center
09:16PM 34.5161 -87.5286 148° Southeast 542 624 35,000  Level Memphis Center
09:17PM 34.3856 -87.4311 148° Southeast 544 626 35,000  Level Memphis Center
09:18PM 34.2547 -87.3339 148° Southeast 545 627 35,000  Level Memphis Center
09:19PM 34.1258 -87.2378 148° Southeast 542 624 35,000  Level Memphis Center
09:20PM 33.9942 -87.1394 148° Southeast 542 624 35,000  Level Memphis Center
09:20PM 33.9092 -87.0750 148° Southeast 548 631 35,000  Level Atlanta Center
09:21PM 33.7800 -86.9803 149° Southeast 548 631 35,000  Level Atlanta Center
09:22PM 33.6508 -86.8836 148° Southeast 548 631 35,000  Level Atlanta Center
09:23PM 33.5258 -86.7775 145° Southeast 548 631 35,000  Level Atlanta Center
09:24PM 33.4008 -86.6739 145° Southeast 553 636 35,000  Level Atlanta Center
09:25PM 33.2900 -86.5811 145° Southeast 548 631 35,000  Level Atlanta Center
09:26PM 33.1647 -86.4831 147° Southeast 543 625 35,000  Level Atlanta Center
09:27PM 33.0417 -86.3731 143° Southeast 543 625 35,000  Level Atlanta Center
09:28PM 32.9183 -86.2708 145° Southeast 549 632 35,000  Level Atlanta Center
09:29PM 32.7950 -86.1664 145° Southeast 549 632 35,000  Level Atlanta Center
09:30PM 32.6733 -86.0647 145° Southeast 543 625 35,000  Level Atlanta Center
09:31PM 32.5478 -85.9633 146° Southeast 543 625 35,000  Level Atlanta Center
09:33PM 32.3297 -85.7839 145° Southeast 539 620 35,000  Level Jacksonville Center
09:34PM 32.2047 -85.6842 146° Southeast 539 620 35,000  Level Jacksonville Center
09:35PM 32.0836 -85.5872 146° Southeast 534 615 35,000  Level Jacksonville Center
09:36PM 31.9625 -85.4906 146° Southeast 534 615 35,000  Level Jacksonville Center
09:37PM 31.8411 -85.3919 145° Southeast 534 615 35,000  Level Jacksonville Center
09:38PM 31.7200 -85.2983 147° Southeast 534 615 35,000  Level Jacksonville Center
09:39PM 31.5903 -85.1925 145° Southeast 524 603 35,000  Level Jacksonville Center
09:40PM 31.4708 -85.0969 146° Southeast 524 603 35,000 180 Level Jacksonville Center
09:46PM 30.7308 -84.5100 146° Southeast 528 608 36,400 240 Climbing FlightAware ADS-B (KTLH)
09:47PM 30.6664 -84.4598 146° Southeast 524 603 37,000 480 Climbing FlightAware ADS-B (KTLH)
09:48PM 30.5914 -84.4013 146° Southeast 522 601 37,000  Level FlightAware ADS-B (KTLH)
09:48PM 30.4914 -84.3312 149° Southeast 514 592 37,000  Level FlightAware ADS-B (KTLH)
09:49PM 30.4154 -84.2814 151° Southeast 514 592 37,000  Level FlightAware ADS-B (KTLH)
09:50PM 30.3462 -84.2362 151° Southeast 512 589 37,000  Level FlightAware ADS-B (KTLH)
09:50PM 30.2927 -84.2013 151° Southeast 511 588 37,000  Level FlightAware ADS-B (KTLH)
09:51PM 30.2032 -84.1429 151° Southeast 511 588 37,000  Level FlightAware ADS-B (KTLH)
09:51PM 30.1430 -84.1037 151° Southeast 511 588 37,000  Level FlightAware ADS-B (KTLH)
09:52PM 30.0866 -84.0668 151° Southeast 509 586 37,000  Level FlightAware ADS-B (KTLH)
09:53PM 29.9809 -83.9982 151° Southeast 507 583 37,000  Level FlightAware ADS-B (KTLH)
09:53PM 29.9050 -83.9492 151° Southeast 501 577 37,000  Level Jacksonville Center
09:54PM 29.7825 -83.8714 151° Southeast 496 571 37,000  Level Jacksonville Center
09:55PM 29.6600 -83.7936 151° Southeast 496 571 37,000 -60 Level Jacksonville Center
09:56PM 29.5353 -83.7136 151° Southeast 496 571 36,900  Descending Jacksonville Center
09:57PM 29.4125 -83.6339 151° Southeast 496 571 37,000  Climbing Jacksonville Center
09:58PM 29.2878 -83.5544 151° Southeast 496 571 37,000  Level Jacksonville Center
09:59PM 29.1650 -83.4775 151° Southeast 496 571 37,000  Level Jacksonville Center
10:04PM 28.4928 -83.1145 151° Southeast 500 575 37,000  Level FlightAware ADS-B (KMCO)
10:05PM 28.4071 -83.0766 159° South 500 575 37,000  Level FlightAware ADS-B (KMCO)
10:06PM 28.3223 -83.0395 159° South 500 575 37,000  Level FlightAware ADS-B (KMCO)
10:06PM 28.2379 -83.0026 159° South 497 572 37,000  Level FlightAware ADS-B (KMCO)
10:07PM 28.1612 -82.9688 159° South 496 571 37,000  Level FlightAware ADS-B (KMCO)
10:09PM 27.9595 -82.8805 159° South 488 562 37,000  Level FlightAware ADS-B (KMCO)
10:10PM 27.8059 -82.8136 159° South 483 556 37,000  Level FlightAware ADS-B (KMCO)
10:11PM 27.7221 -82.7772 159° South 479 551 37,000  Level FlightAware ADS-B (KMCO)
10:11PM 27.6541 -82.7478 159° South 477 549 37,000  Level FlightAware ADS-B (KMCO)
10:12PM 27.5735 -82.7129 159° South 477 549 37,000  Level FlightAware ADS-B (KMCO)
10:12PM 27.4919 -82.6775 159° South 477 549 37,000  Level FlightAware ADS-B (KMCO)
10:13PM 27.4276 -82.6498 159° South 475 547 37,000  Level FlightAware ADS-B (KMCO)
10:14PM 27.3122 -82.6000 159° South 474 545 37,000  Level FlightAware ADS-B (KMCO)
10:15PM 27.1940 -82.5487 159° South 473 544 37,000  Level FlightAware ADS-B (KMCO)
10:15PM 27.1207 -82.5174 159° South 472 543 37,000  Level FlightAware ADS-B (KMCO)
10:17PM 26.8965 -82.4216 159° South 480 552 37,000  Level FlightAware ADS-B (KMCO)
10:18PM 26.8358 -82.3958 159° South 479 551 37,000  Level FlightAware ADS-B (KMCO)
10:18PM 26.7704 -82.3677 159° South 479 551 37,000  Level FlightAware ADS-B (KMCO)
10:20PM 26.5404 -82.2699 159° South 475 547 37,000  Level FlightAware ADS-B (KMCO)
10:21PM 26.4780 -82.2435 159° South 473 544 37,000  Level FlightAware ADS-B (KMCO)
10:21PM 26.3966 -82.2089 159° South 471 542 37,000  Level FlightAware ADS-B (KMCO)
10:22PM 26.3146 -82.1742 159° South 468 539 37,000  Level FlightAware ADS-B (KMCO)
10:22PM 26.2576 -82.1501 159° South 463 533 37,000  Level FlightAware ADS-B (KMCO)
10:23PM 26.1979 -82.1249 159° South 458 527 37,000  Level FlightAware ADS-B (KMCO)
10:23PM 26.1347 -82.0983 159° South 455 524 37,000  Level FlightAware ADS-B (KMCO)
10:24PM 26.0764 -82.0738 159° South 454 522 37,000  Level FlightAware ADS-B (KMCO)
10:25PM 25.9983 -82.0411 159° South 451 519 37,000  Level FlightAware ADS-B (KMCO)
10:25PM 25.9125 -82.0072 159° South 455 524 37,000  Level Miami Center
10:26PM 25.7972 -81.9583 159° South 460 529 37,000  Level Miami Center
10:27PM 25.6781 -81.9072 159° South 460 529 37,000 -60 Level Miami Center
10:28PM 25.5586 -81.8586 160° South 460 529 36,900 -60 Descending Miami Center
10:29PM 25.4433 -81.8100 159° South 460 529 36,900  Level Miami Center
10:30PM 25.3319 -81.7642 160° South 466 536 36,900 -600 Level Miami Center
10:31PM 25.2139 -81.7342 167° South 454 522 35,800 -1,080 Descending Miami Center
10:32PM 25.0936 -81.7089 169° South 449 517 34,800 -1,020 Descending Miami Center
10:33PM 24.9753 -81.6881 171° South 449 517 33,800 -1,080 Descending Miami Center
10:34PM 24.8489 -81.6625 170° South 435 501 32,700 -1,620 Descending Miami Center
10:35PM 24.7353 -81.6261 164° South 430 495 30,600 -1,500 Descending Miami Center
10:36PM 24.6511 -81.5725 150° Southeast 424 488 29,700 -1,080 Descending Miami Center
10:37PM 24.5319 -81.5156 157° South 430 495 28,500 -1,140 Descending Miami Center
10:38PM 24.4333 -81.4617 154° Southeast 424 488 27,500 -1,140 Descending Miami Center
10:39PM 24.3369 -81.4081 153° Southeast 403 464 26,300 -1,440 Descending Miami Center
10:40PM 24.2403 -81.3522 152° Southeast 391 450 24,700 -1,560 Descending Miami Center
10:41PM 24.1481 -81.2989 152° Southeast 385 443 23,200 -1,500 Descending Miami Center
10:42PM 24.0575 -81.2500 154° Southeast 377 434 21,700 -1,440 Descending Miami Center
10:43PM 23.9683 -81.2289 168° South 366 421 20,400 -1,380 Descending Miami Center
10:45PM 23.8164 -81.2267 185° South  Level FlightAware Approximate
10:52PM 23.1167 -81.3000 190° South  Level FlightAware Approximate
10:53PM 23.0437 -81.4201 190° South  Level Estimated
10:54PM 23.0345 -81.4353 190° South  Level Estimated
10:55PM 23.0344 -81.4353 190° South  Level Estimated
10:56PM 23.0345 -81.4353 190° South  Level Estimated
10:57PM 23.0344 -81.4353 190° South  Level Estimated
10:58PM 23.0345 -81.4353 190° South  Level Estimated
10:59PM 23.0344 -81.4353 190° South  Level Estimated
11:00PM 23.0345 -81.4353 190° South  Level Estimated
11:01PM 23.0344 -81.4353 190° South  Level Estimated
11:02PM 23.0345 -81.4353 190° South  Level Estimated
11:03PM 23.0344 -81.4353 190° South  Level Estimated
11:04PM 23.0345 -81.4353 190° South  Level Estimated
11:05PM 23.0344 -81.4353 190° South  Level Estimated
11:06PM 23.0345 -81.4353 190° South  Level Estimated
11:07PM 23.0344 -81.4353 190° South  Level Estimated
11:08PM 23.0345 -81.4353 190° South  Level Estimated
11:09PM 23.0344 -81.4353 190° South  Level Estimated
11:10PM 23.0345 -81.4353 190° South  Level Estimated
11:11PM 23.0344 -81.4353 190° South  Level Estimated